Decoded Metar for GCTS (TENERIFE in SPAIN) (IATA:TFS) | Meteo·Mobile Aviation Weather
aviador You're here:

GCTS Decoded Metar

TENERIFE in SPAIN
Report Time2019-11-16 01:30:00
UTC Time2019-11-16 01:38:06
Flight Rules vfr VFR
Wind060° at 12 kt
W.Decomp.*RWY 08: 11.6 kt HW 2.9 kt LCW
Visibility9999 m
Phenomena:N/A
Clouds:Scattered 040 Hf
Expected CloudBase > 3,600 ft AGL from Temp-Dew spread
CeilingNone
Temp18°C (ISA +3)
Dew Point09°C (56% RH)
AAT13.5°C
QNH1018 hPa
Density Alt630 ft
Elevation236 ft
Report Wrong Elevation
Raw Report
METAR GCTS 160130Z 06012KT 9999 SCT040 18/09 Q1018 NOSIG=

Extra information for GCTS:More info

Metar Taf Metar & Taf Last 4 Metars F.Rules Stats Wind Profile Meteogram Temp Stats Airport Information Weather charts Add Link Nearby VenuesMetar ALERT Operation Metar Decoded Social comments